createdAt,value
2023-02-09T00:00:12.015Z,73.43
2023-02-09T00:02:44.579Z,73.33
2023-02-09T00:05:13.686Z,73.91
2023-02-09T00:07:43.835Z,73.54
2023-02-09T00:10:12.729Z,74.02
2023-02-09T00:12:58.847Z,73.59
2023-02-09T00:15:27.558Z,72.73
2023-02-09T00:17:57.181Z,72.60
2023-02-09T00:20:25.947Z,72.21
2023-02-09T00:22:56.045Z,72.18
2023-02-09T00:25:24.728Z,71.88
2023-02-09T00:27:53.529Z,72.49
2023-02-09T00:30:22.415Z,72.28
2023-02-09T00:32:51.189Z,72.63
2023-02-09T00:35:20.556Z,72.39
2023-02-09T00:37:49.400Z,72.48
2023-02-09T00:40:19.871Z,72.45
2023-02-09T00:42:48.617Z,72.04
2023-02-09T00:45:19.085Z,72.82
2023-02-09T00:47:47.802Z,72.16
2023-02-09T00:50:16.712Z,72.30
2023-02-09T00:52:45.517Z,71.34
2023-02-09T00:55:14.265Z,71.64
2023-02-09T00:57:44.426Z,72.09
2023-02-09T01:00:16.232Z,72.15
2023-02-09T01:02:45.223Z,72.18
2023-02-09T01:05:14.055Z,72.85
2023-02-09T01:07:42.835Z,72.37
2023-02-09T01:10:12.243Z,72.93
2023-02-09T01:12:43.351Z,73.01
2023-02-09T01:15:13.996Z,73.05
2023-02-09T01:17:45.631Z,72.79
2023-02-09T01:20:15.444Z,72.15
2023-02-09T01:22:44.252Z,72.49
2023-02-09T01:25:13.104Z,72.36
2023-02-09T01:27:43.394Z,72.43
2023-02-09T01:30:13.908Z,72.03
2023-02-09T01:32:42.644Z,72.98
2023-02-09T01:35:12.553Z,73.11
2023-02-09T01:37:41.287Z,72.71
2023-02-09T01:40:12.323Z,72.42
2023-02-09T01:42:43.385Z,72.42
2023-02-09T01:45:26.791Z,72.71
2023-02-09T01:48:01.668Z,73.39
2023-02-09T01:50:38.034Z,73.82
2023-02-09T01:53:08.354Z,73.44
2023-02-09T01:55:45.612Z,73.25
2023-02-09T01:58:19.816Z,73.64
2023-02-09T02:00:49.556Z,73.42
2023-02-09T02:03:23.772Z,73.52
2023-02-09T02:05:58.881Z,74.24
2023-02-09T02:08:34.716Z,74.63
2023-02-09T02:11:04.397Z,74.41
2023-02-09T02:13:34.679Z,73.20
2023-02-09T02:16:14.157Z,73.61
2023-02-09T02:19:03.969Z,73.22
2023-02-09T02:22:36.631Z,73.17
2023-02-09T02:26:07.019Z,73.87
2023-02-09T02:28:54.294Z,73.76
2023-02-09T02:32:11.083Z,73.18
2023-02-09T02:34:49.381Z,73.05
2023-02-09T02:37:36.423Z,74.11
2023-02-09T02:40:22.711Z,74.22
2023-02-09T02:42:59.371Z,73.47
2023-02-09T02:45:42.553Z,73.12
2023-02-09T02:48:31.137Z,72.77
2023-02-09T02:51:05.204Z,73.32
2023-02-09T02:53:38.869Z,73.26
2023-02-09T02:56:14.661Z,73.34
2023-02-09T02:58:47.550Z,73.33
2023-02-09T03:01:25.221Z,73.38
2023-02-09T03:03:58.377Z,74.41
2023-02-09T03:06:27.212Z,74.11
2023-02-09T03:08:58.776Z,74.13
2023-02-09T03:11:35.605Z,73.52
2023-02-09T03:14:25.248Z,73.22
2023-02-09T03:17:09.878Z,73.79
2023-02-09T03:19:50.447Z,73.50
2023-02-09T03:22:31.019Z,73.80
2023-02-09T03:25:06.751Z,74.41
2023-02-09T03:27:41.411Z,73.96
2023-02-09T03:30:15.948Z,73.67
2023-02-09T03:32:48.378Z,73.42
2023-02-09T03:35:22.060Z,73.23
2023-02-09T03:37:50.793Z,73.18
2023-02-09T03:40:20.556Z,73.32
2023-02-09T03:42:50.262Z,72.89
2023-02-09T03:45:19.245Z,72.68
2023-02-09T03:47:48.171Z,73.53
2023-02-09T03:50:18.989Z,72.89
2023-02-09T03:52:51.845Z,72.86
2023-02-09T03:55:20.627Z,72.79
2023-02-09T03:57:49.276Z,73.35
2023-02-09T04:00:19.448Z,73.13
2023-02-09T04:02:48.247Z,72.73
2023-02-09T04:05:18.594Z,72.23
2023-02-09T04:07:47.401Z,72.35
2023-02-09T04:10:16.260Z,73.03
2023-02-09T04:12:44.895Z,73.75
2023-02-09T04:15:13.559Z,73.23
2023-02-09T04:17:42.225Z,72.59
2023-02-09T04:20:11.873Z,73.20
2023-02-09T04:22:42.058Z,72.94
2023-02-09T04:25:10.718Z,73.74
2023-02-09T04:27:39.456Z,73.62
2023-02-09T04:30:10.391Z,73.64
2023-02-09T04:32:39.059Z,74.52
2023-02-09T04:35:08.638Z,73.77
2023-02-09T04:37:37.366Z,73.16
2023-02-09T04:40:08.804Z,73.54
2023-02-09T04:42:37.450Z,73.02
2023-02-09T04:45:07.774Z,72.66
2023-02-09T04:47:36.562Z,73.53
2023-02-09T04:50:06.320Z,73.01
2023-02-09T04:52:34.978Z,73.61
2023-02-09T04:55:03.751Z,73.42
2023-02-09T04:58:02.520Z,74.71
2023-02-09T05:00:40.280Z,73.58
2023-02-09T05:03:09.510Z,73.51
2023-02-09T05:05:41.860Z,72.92
2023-02-09T05:08:11.112Z,73.25
2023-02-09T05:10:39.925Z,72.62
2023-02-09T05:13:10.013Z,72.41
2023-02-09T05:15:38.733Z,72.62
2023-02-09T05:18:07.653Z,73.76
2023-02-09T05:20:37.223Z,73.17
2023-02-09T05:23:07.269Z,74.14
2023-02-09T05:25:36.555Z,74.60
2023-02-09T05:28:46.469Z,73.74
2023-02-09T05:31:16.746Z,73.13
2023-02-09T05:33:46.077Z,73.77
2023-02-09T05:36:14.913Z,73.09
2023-02-09T05:38:43.623Z,72.63
2023-02-09T05:41:36.308Z,72.17
2023-02-09T05:44:07.487Z,72.81
2023-02-09T05:46:36.969Z,72.99
2023-02-09T05:49:16.255Z,73.81
2023-02-09T05:51:49.236Z,74.34
2023-02-09T05:54:18.208Z,73.64
2023-02-09T05:56:46.817Z,73.05
2023-02-09T05:59:16.962Z,73.19
2023-02-09T06:01:46.366Z,72.64
2023-02-09T06:04:15.325Z,72.39
2023-02-09T06:06:44.064Z,72.19
2023-02-09T06:09:12.967Z,72.21
2023-02-09T06:11:41.650Z,71.98
2023-02-09T06:14:10.414Z,72.51
2023-02-09T06:16:41.925Z,73.44
2023-02-09T06:19:15.151Z,73.58
2023-02-09T06:21:44.655Z,73.20
2023-02-09T06:24:14.958Z,74.28
2023-02-09T06:26:43.960Z,74.43
2023-02-09T06:29:12.685Z,74.18
2023-02-09T06:31:42.900Z,73.42
2023-02-09T06:34:12.086Z,73.38
2023-02-09T06:36:41.066Z,73.04
2023-02-09T06:39:11.495Z,73.54
2023-02-09T06:41:40.292Z,72.55
2023-02-09T06:44:09.219Z,72.55
2023-02-09T06:46:38.337Z,72.45
2023-02-09T06:49:08.625Z,72.62
2023-02-09T06:51:37.616Z,72.86
2023-02-09T06:54:06.746Z,72.72
2023-02-09T06:56:35.450Z,72.40
2023-02-09T06:59:04.104Z,72.02
2023-02-09T07:01:32.799Z,71.90
2023-02-09T07:04:01.523Z,72.46
2023-02-09T07:06:31.780Z,73.06
2023-02-09T07:09:00.519Z,72.60
2023-02-09T07:11:30.612Z,72.95
2023-02-09T07:13:59.353Z,72.55
2023-02-09T07:16:28.161Z,72.73
2023-02-09T07:18:58.405Z,72.65
2023-02-09T07:21:28.131Z,72.57
2023-02-09T07:23:58.200Z,72.49
2023-02-09T07:26:26.912Z,72.14
2023-02-09T07:28:55.626Z,72.12
2023-02-09T07:31:24.527Z,72.45
2023-02-09T07:33:54.300Z,72.33
2023-02-09T07:36:23.085Z,71.95
2023-02-09T07:38:51.987Z,71.94
2023-02-09T07:41:25.461Z,72.05
2023-02-09T07:43:54.782Z,72.25
2023-02-09T07:46:25.582Z,72.00
2023-02-09T07:48:54.413Z,71.93
2023-02-09T07:51:25.354Z,71.94
2023-02-09T07:53:54.370Z,72.12
2023-02-09T07:56:25.108Z,72.48
2023-02-09T07:58:54.819Z,72.27
2023-02-09T08:01:24.500Z,72.34
2023-02-09T08:03:53.556Z,72.14
2023-02-09T08:06:40.970Z,71.97
2023-02-09T08:09:11.536Z,72.26
2023-02-09T08:11:49.946Z,72.49
2023-02-09T08:14:25.533Z,72.65
2023-02-09T08:17:13.553Z,72.64
2023-02-09T08:19:43.100Z,72.91
2023-02-09T08:22:12.128Z,72.76
2023-02-09T08:24:41.739Z,72.27
2023-02-09T08:27:12.350Z,72.59
2023-02-09T08:29:41.239Z,72.63
2023-02-09T08:32:10.001Z,72.96
2023-02-09T08:34:38.742Z,73.10
2023-02-09T08:37:07.405Z,73.37
2023-02-09T08:39:36.080Z,73.62
2023-02-09T08:42:04.795Z,73.80
2023-02-09T08:44:35.884Z,73.76
2023-02-09T08:47:04.722Z,73.79
2023-02-09T08:49:33.435Z,73.77
2023-02-09T08:52:02.109Z,73.81
2023-02-09T08:54:30.894Z,73.74
2023-02-09T08:56:59.554Z,73.59
2023-02-09T08:59:28.568Z,73.94
2023-02-09T09:01:58.667Z,73.64
2023-02-09T09:04:28.112Z,73.44
2023-02-09T09:06:56.800Z,73.86
2023-02-09T09:09:25.445Z,73.65
2023-02-09T09:11:54.150Z,73.61
2023-02-09T09:14:22.820Z,73.93
2023-02-09T09:16:51.543Z,73.99
2023-02-09T09:19:21.809Z,73.42
2023-02-09T09:21:50.443Z,73.04
2023-02-09T09:24:19.992Z,71.90
2023-02-09T09:26:48.657Z,71.09
2023-02-09T09:29:17.361Z,70.66
2023-02-09T09:31:46.174Z,70.34
2023-02-09T09:34:14.921Z,68.50
2023-02-09T09:36:44.994Z,68.25
2023-02-09T09:39:13.622Z,67.70
2023-02-09T09:41:47.915Z,66.50
2023-02-09T09:44:30.391Z,66.66
2023-02-09T09:47:04.163Z,66.18
2023-02-09T09:49:36.235Z,67.02
2023-02-09T09:52:14.872Z,66.17
2023-02-09T09:54:45.272Z,65.89
2023-02-09T09:57:25.353Z,66.70
2023-02-09T09:59:55.912Z,65.10
2023-02-09T10:02:31.010Z,65.76
2023-02-09T10:05:18.028Z,65.16
2023-02-09T10:07:59.245Z,63.65
2023-02-09T10:10:42.734Z,63.42
2023-02-09T10:13:21.978Z,61.85
2023-02-09T10:15:52.429Z,61.10
2023-02-09T10:18:25.525Z,60.87
2023-02-09T10:20:57.762Z,59.98
2023-02-09T10:23:39.215Z,61.15
2023-02-09T10:33:54.632Z,61.42
2023-02-09T10:36:30.359Z,62.12
2023-02-09T10:39:16.176Z,63.18
2023-02-09T10:41:48.287Z,62.60
2023-02-09T10:47:27.278Z,62.44
2023-02-09T10:50:02.092Z,61.18
2023-02-09T10:52:36.287Z,60.69
2023-02-09T10:55:17.007Z,59.69
2023-02-09T10:57:45.701Z,59.71
2023-02-09T11:00:34.400Z,60.12
2023-02-09T11:03:04.749Z,60.85
2023-02-09T11:05:36.400Z,61.71
2023-02-09T11:08:23.310Z,61.80
2023-02-09T11:11:05.494Z,62.53
2023-02-09T11:13:35.697Z,62.81
2023-02-09T11:16:30.365Z,63.64
2023-02-09T11:19:14.105Z,63.74
2023-02-09T11:21:57.377Z,64.13
2023-02-09T11:24:45.542Z,64.10
2023-02-09T11:27:32.350Z,64.56
2023-02-09T11:30:19.745Z,64.65
2023-02-09T11:32:55.613Z,63.22
2023-02-09T11:35:37.727Z,62.30
2023-02-09T11:38:15.233Z,61.35
2023-02-09T11:40:50.502Z,61.31
2023-02-09T11:43:27.700Z,60.05
2023-02-09T11:46:04.538Z,60.24
2023-02-09T11:48:40.100Z,61.05
2023-02-09T11:51:16.515Z,61.54
2023-02-09T11:53:55.821Z,62.63
2023-02-09T11:56:27.314Z,62.08
2023-02-09T11:59:04.865Z,61.07
2023-02-09T12:01:45.578Z,60.61
2023-02-09T12:04:22.660Z,60.37
2023-02-09T12:06:57.241Z,61.08
2023-02-09T12:09:50.716Z,61.43
2023-02-09T12:12:31.123Z,62.44
2023-02-09T12:15:16.863Z,63.28
2023-02-09T12:17:52.725Z,63.05
2023-02-09T12:20:32.641Z,59.09
2023-02-09T12:23:07.955Z,58.95
2023-02-09T12:25:53.082Z,59.60
2023-02-09T12:28:45.742Z,58.80
2023-02-09T12:31:26.166Z,58.53
2023-02-09T12:34:30.702Z,58.50
2023-02-09T12:37:28.478Z,58.73
2023-02-09T12:40:23.939Z,58.10
2023-02-09T12:43:27.482Z,59.44
2023-02-09T12:46:22.659Z,57.71
2023-02-09T12:49:10.262Z,55.65
2023-02-09T12:51:53.758Z,56.02
2023-02-09T12:54:43.879Z,55.99
2023-02-09T12:57:59.652Z,55.06
2023-02-09T13:00:57.502Z,55.50
2023-02-09T13:03:28.634Z,56.29
2023-02-09T13:06:03.092Z,56.93
2023-02-09T13:08:53.173Z,57.20
2023-02-09T13:11:31.179Z,58.04
2023-02-09T13:14:07.719Z,58.82
2023-02-09T13:17:36.270Z,59.32
2023-02-09T13:20:56.305Z,59.49
2023-02-09T13:23:35.050Z,59.51
2023-02-09T13:26:19.618Z,59.64
2023-02-09T13:28:48.552Z,60.53
2023-02-09T13:31:36.931Z,60.53
2023-02-09T13:34:23.862Z,61.63
2023-02-09T13:37:10.138Z,61.49
2023-02-09T13:39:44.020Z,60.76
2023-02-09T13:42:23.153Z,59.16
2023-02-09T13:44:55.200Z,59.77
2023-02-09T13:47:26.748Z,57.34
2023-02-09T13:50:01.982Z,59.25
2023-02-09T13:52:38.810Z,58.55
2023-02-09T13:55:16.703Z,59.98
2023-02-09T13:57:50.541Z,60.21
2023-02-09T14:00:27.997Z,60.17
2023-02-09T14:03:01.978Z,60.53
2023-02-09T14:05:41.936Z,61.84
2023-02-09T14:08:14.741Z,61.89
2023-02-09T14:10:52.815Z,62.11
2023-02-09T14:13:28.966Z,62.44
2023-02-09T14:16:07.927Z,62.78
2023-02-09T14:18:55.585Z,62.37
2023-02-09T14:21:34.341Z,62.57
2023-02-09T14:24:24.670Z,64.06
2023-02-09T14:26:59.420Z,64.28
2023-02-09T14:29:33.456Z,63.83
2023-02-09T14:32:31.927Z,64.33
2023-02-09T14:35:18.927Z,64.41
2023-02-09T14:37:50.074Z,64.23
2023-02-09T14:40:34.627Z,63.98
2023-02-09T14:43:24.893Z,64.13
2023-02-09T14:46:02.172Z,64.20
2023-02-09T14:48:32.554Z,64.45
2023-02-09T14:51:13.971Z,64.93
2023-02-09T14:53:45.468Z,64.53
2023-02-09T14:56:24.958Z,64.16
2023-02-09T14:58:53.726Z,64.60
2023-02-09T15:01:22.794Z,64.71
2023-02-09T15:03:51.630Z,64.75
2023-02-09T15:06:21.824Z,64.97
2023-02-09T15:08:50.593Z,65.80
2023-02-09T15:11:42.942Z,67.41
2023-02-09T15:14:13.278Z,66.90
2023-02-09T15:16:42.129Z,67.13
2023-02-09T15:19:15.436Z,67.28
2023-02-09T15:21:50.697Z,67.09
2023-02-09T15:24:24.949Z,67.55
2023-02-09T15:26:54.051Z,67.58
2023-02-09T15:29:22.866Z,67.46
2023-02-09T15:31:51.666Z,67.10
2023-02-09T15:34:21.579Z,66.86
2023-02-09T15:36:51.792Z,66.81
2023-02-09T15:39:25.228Z,66.79
2023-02-09T15:42:11.228Z,66.62
2023-02-09T15:45:12.217Z,66.99
2023-02-09T15:47:50.181Z,67.23
2023-02-09T15:50:19.191Z,68.56
2023-02-09T15:52:49.509Z,68.29
2023-02-09T15:55:23.390Z,68.36
2023-02-09T15:57:54.467Z,68.96
2023-02-09T16:00:27.818Z,68.54
2023-02-09T16:03:00.510Z,68.46
2023-02-09T16:05:31.396Z,68.11
2023-02-09T16:08:01.921Z,68.69
2023-02-09T16:10:31.985Z,68.60
2023-02-09T16:13:35.290Z,68.68
2023-02-09T16:16:16.567Z,68.55
2023-02-09T16:18:46.625Z,69.56
2023-02-09T16:21:25.110Z,68.92
2023-02-09T16:23:58.367Z,69.76
2023-02-09T16:26:31.195Z,69.15
2023-02-09T16:29:00.268Z,69.08
2023-02-09T16:31:29.462Z,70.01
2023-02-09T16:33:59.369Z,69.60
2023-02-09T16:36:32.316Z,70.56
2023-02-09T16:39:04.307Z,71.25
2023-02-09T16:41:49.706Z,70.60
2023-02-09T16:44:22.802Z,70.22
2023-02-09T16:46:55.537Z,70.73
2023-02-09T16:49:36.076Z,71.00
2023-02-09T16:52:14.152Z,72.97
2023-02-09T16:54:53.414Z,72.54
2023-02-09T16:57:24.330Z,73.01
2023-02-09T16:59:55.695Z,73.10
2023-02-09T17:02:38.037Z,72.40
2023-02-09T17:11:07.932Z,71.35
2023-02-09T17:13:36.628Z,71.48
2023-02-09T17:16:09.158Z,71.28
2023-02-09T17:18:44.127Z,71.63
2023-02-09T17:21:21.701Z,71.53
2023-02-09T17:23:50.833Z,72.38
2023-02-09T17:26:22.216Z,73.22
2023-02-09T17:28:52.353Z,74.12
2023-02-09T17:31:26.474Z,74.68
2023-02-09T17:34:01.032Z,74.99
2023-02-09T17:36:32.586Z,75.23
2023-02-09T17:39:04.186Z,74.77
2023-02-09T17:41:41.180Z,75.20
2023-02-09T17:44:29.042Z,75.93
2023-02-09T17:47:05.946Z,75.52
2023-02-09T17:49:34.973Z,75.30
2023-02-09T17:52:05.033Z,75.69
2023-02-09T17:54:34.111Z,75.71
2023-02-09T17:57:04.371Z,75.65
2023-02-09T17:59:34.277Z,75.99
2023-02-09T18:02:03.274Z,76.07
2023-02-09T18:04:33.886Z,75.93
2023-02-09T18:07:03.879Z,75.50
2023-02-09T18:09:32.709Z,74.50
2023-02-09T18:12:06.044Z,74.85
2023-02-09T18:14:36.194Z,74.45
2023-02-09T18:17:05.106Z,75.05
2023-02-09T18:19:34.419Z,74.82
2023-02-09T18:22:05.240Z,75.80
2023-02-09T18:24:38.063Z,75.00
2023-02-09T18:27:08.852Z,75.42
2023-02-09T18:29:37.986Z,75.06
2023-02-09T18:32:07.055Z,74.49
2023-02-09T18:34:37.687Z,74.25
2023-02-09T18:37:06.422Z,73.99
2023-02-09T18:39:36.787Z,75.13
2023-02-09T18:42:07.362Z,75.48
2023-02-09T18:44:36.802Z,75.96
2023-02-09T18:47:06.909Z,76.15
2023-02-09T18:49:36.286Z,74.96
2023-02-09T18:52:06.176Z,76.94
2023-02-09T18:54:44.379Z,75.85
2023-02-09T18:57:19.200Z,76.61
2023-02-09T18:59:49.695Z,76.33
2023-02-09T19:02:18.659Z,75.27
2023-02-09T19:04:48.596Z,76.54
2023-02-09T19:07:18.608Z,76.59
2023-02-09T19:10:05.221Z,75.73
2023-02-09T19:12:50.104Z,76.88
2023-02-09T19:15:22.577Z,76.44
2023-02-09T19:18:32.681Z,75.81
2023-02-09T19:21:06.993Z,76.09
2023-02-09T19:23:37.180Z,76.74
2023-02-09T19:26:08.156Z,76.28
2023-02-09T19:28:39.156Z,76.93
2023-02-09T19:31:58.458Z,78.07
2023-02-09T19:35:24.493Z,77.46
2023-02-09T19:38:50.164Z,77.71
2023-02-09T19:42:16.743Z,77.61
2023-02-09T19:44:49.339Z,76.97
2023-02-09T19:47:18.829Z,76.68
2023-02-09T19:49:57.173Z,77.66
2023-02-09T19:52:31.078Z,77.89
2023-02-09T19:55:20.109Z,78.35
2023-02-09T19:57:49.730Z,77.79
2023-02-09T20:00:47.548Z,76.87
2023-02-09T20:03:19.787Z,76.35
2023-02-09T20:05:49.476Z,76.91
2023-02-09T20:08:21.725Z,76.93
2023-02-09T20:10:50.949Z,77.56
2023-02-09T20:13:20.286Z,78.15
2023-02-09T20:15:52.541Z,78.25
2023-02-09T20:18:23.251Z,77.46
2023-02-09T20:20:52.407Z,76.84
2023-02-09T20:23:21.590Z,76.04
2023-02-09T20:25:51.179Z,75.92
2023-02-09T20:28:21.335Z,76.07
2023-02-09T20:30:53.875Z,76.12
2023-02-09T20:33:25.084Z,75.92
2023-02-09T20:35:53.954Z,76.76
2023-02-09T20:38:22.663Z,77.29
2023-02-09T20:40:51.920Z,77.77
2023-02-09T20:43:38.055Z,77.38
2023-02-09T20:46:26.215Z,77.31
2023-02-09T20:48:57.617Z,77.77
2023-02-09T20:51:26.953Z,76.88
2023-02-09T20:53:56.962Z,76.98
2023-02-09T20:56:32.351Z,76.26
2023-02-09T20:59:05.963Z,76.06
2023-02-09T21:01:40.174Z,75.83
2023-02-09T21:04:11.042Z,75.64
2023-02-09T21:06:40.184Z,76.82
2023-02-09T21:09:14.982Z,76.69
2023-02-09T21:11:44.559Z,76.23
2023-02-09T21:14:22.097Z,76.32
2023-02-09T21:17:01.801Z,76.43
2023-02-09T21:19:34.424Z,75.98
2023-02-09T21:22:06.267Z,76.29
2023-02-09T21:24:38.547Z,76.96
2023-02-09T21:27:11.321Z,77.05
2023-02-09T21:29:40.465Z,76.55
2023-02-09T21:32:12.329Z,76.18
2023-02-09T21:34:44.218Z,76.98
2023-02-09T21:37:14.853Z,76.76
2023-02-09T21:39:44.468Z,76.47
2023-02-09T21:42:31.401Z,75.73
2023-02-09T21:45:01.156Z,75.99
2023-02-09T21:47:32.937Z,76.87
2023-02-09T21:50:04.681Z,76.65
2023-02-09T21:52:34.709Z,76.73
2023-02-09T21:55:03.795Z,76.33
2023-02-09T21:57:32.798Z,75.92
2023-02-09T22:00:05.529Z,75.67
2023-02-09T22:02:35.034Z,76.57
2023-02-09T22:05:06.380Z,76.82
2023-02-09T22:07:36.331Z,76.34
2023-02-09T22:10:06.472Z,76.39
2023-02-09T22:12:36.446Z,75.85
2023-02-09T22:15:05.909Z,76.15
2023-02-09T22:17:37.846Z,75.81
2023-02-09T22:20:11.148Z,75.55
2023-02-09T22:22:40.636Z,75.38
2023-02-09T22:25:10.007Z,74.96
2023-02-09T22:27:38.704Z,75.27
2023-02-09T22:30:08.410Z,74.69
2023-02-09T22:32:37.186Z,75.26
2023-02-09T22:35:08.148Z,75.14
2023-02-09T22:37:37.090Z,74.93
2023-02-09T22:40:06.568Z,75.06
2023-02-09T22:42:35.440Z,74.73
2023-02-09T22:45:06.350Z,75.28
2023-02-09T22:47:35.934Z,75.15
2023-02-09T22:50:04.845Z,74.66
2023-02-09T22:52:35.612Z,74.68
2023-02-09T22:55:04.541Z,75.62
2023-02-09T22:57:33.299Z,76.29
2023-02-09T23:00:02.123Z,75.86
2023-02-09T23:02:30.812Z,75.71
2023-02-09T23:04:59.616Z,75.06
2023-02-09T23:07:28.681Z,74.95
2023-02-09T23:09:58.901Z,74.74
2023-02-09T23:12:27.736Z,75.02
2023-02-09T23:14:56.539Z,75.60
2023-02-09T23:17:25.327Z,75.40
2023-02-09T23:19:54.095Z,74.92
2023-02-09T23:22:22.782Z,74.97
2023-02-09T23:24:51.445Z,74.64
2023-02-09T23:27:21.544Z,74.93
2023-02-09T23:43:21.160Z,75.43
2023-02-09T23:45:51.418Z,75.79
2023-02-09T23:48:20.588Z,75.04
2023-02-09T23:50:49.376Z,75.95
2023-02-09T23:53:18.177Z,76.54
2023-02-09T23:55:52.641Z,76.19
2023-02-09T23:58:22.817Z,76.21
